createdAt,value
2023-04-22T00:09:21.691Z,1.4448160535117056
2023-04-22T00:15:42.216Z,2.0668896321070234
2023-04-22T00:26:53.392Z,1.8929765886287626
2023-04-22T00:33:15.900Z,1.117056856187291
2023-04-22T00:39:36.235Z,2.1103678929765888
2023-04-22T00:50:26.299Z,1.8294314381270902
2023-04-22T00:56:46.792Z,1.5986622073578596
2023-04-22T01:05:59.049Z,1.9832775919732442
2023-04-22T01:12:20.241Z,1.9264214046822743
2023-04-22T01:18:40.354Z,1.374581939799331
2023-04-22T01:25:01.406Z,2.0903010033444818
2023-04-22T01:34:11.336Z,2.0468227424749164
2023-04-22T01:40:31.879Z,1.8929765886287626
2023-04-22T01:46:51.972Z,1.7023411371237458
2023-04-22T01:57:24.471Z,1.1137123745819397
2023-04-22T02:03:45.360Z,1.5919732441471572
2023-04-22T02:24:23.178Z,1.5719063545150502
2023-04-22T02:30:44.360Z,2.3411371237458196
2023-04-22T02:37:04.175Z,1.9565217391304348
2023-04-22T02:51:09.865Z,1.8160535117056855
2023-04-22T02:57:30.815Z,2.2040133779264215
2023-04-22T03:06:55.126Z,2.5785953177257523
2023-04-22T03:13:16.665Z,2.7859531772575252
2023-04-22T03:21:57.666Z,1.625418060200669
2023-04-22T03:28:17.671Z,2.2474916387959865
2023-04-22T03:45:39.615Z,2.6622073578595318
2023-04-22T03:56:10.112Z,1.9130434782608696
2023-04-22T04:07:44.787Z,2.2274247491638794
2023-04-22T04:14:05.334Z,3.100334448160535
2023-04-22T04:20:26.226Z,1.9264214046822743
2023-04-22T04:32:24.422Z,1.9331103678929766
2023-04-22T04:38:47.701Z,2.0267558528428093
2023-04-22T04:45:11.328Z,2.4214046822742477
2023-04-22T04:51:33.775Z,1.9665551839464883
2023-04-22T04:58:01.334Z,2.3745819397993313
2023-04-22T05:04:27.486Z,1.9565217391304348
2023-04-22T05:15:16.763Z,2.1337792642140467
2023-04-22T05:21:39.811Z,1.9230769230769231
2023-04-22T05:28:05.346Z,2.3076923076923075
2023-04-22T05:36:59.767Z,2.2441471571906355
2023-04-22T05:43:25.978Z,2.822742474916388
2023-04-22T05:54:05.690Z,1.6421404682274248
2023-04-22T06:06:48.887Z,2.4581939799331103
2023-04-22T06:15:08.110Z,2.2842809364548495
2023-04-22T06:21:31.745Z,1.939799331103679
2023-04-22T06:31:47.259Z,2.6421404682274248
2023-04-22T06:38:11.184Z,2.4949832775919734
2023-04-22T06:45:08.035Z,2.3377926421404682
2023-04-22T06:51:31.159Z,2.809364548494983
2023-04-22T06:57:58.179Z,2.3444816053511706
2023-04-22T07:04:23.104Z,1.9230769230769231
2023-04-22T07:11:05.779Z,2.5752508361204014
2023-04-22T07:23:35.340Z,2.5150501672240804
2023-04-22T07:36:04.436Z,2.4648829431438126
2023-04-22T07:42:45.063Z,2.3645484949832776
2023-04-22T07:49:10.625Z,1.9632107023411371
2023-04-22T07:55:33.757Z,2.117056856187291
2023-04-22T08:01:57.346Z,2.280936454849498
2023-04-22T08:08:21.762Z,2.8160535117056855
2023-04-22T08:14:46.032Z,2.254180602006689
2023-04-22T08:21:09.471Z,1.725752508361204
2023-04-22T08:29:05.612Z,2.431438127090301
2023-04-22T08:35:28.933Z,1.3444816053511706
2023-04-22T08:41:51.955Z,2.3277591973244145
2023-04-22T08:48:15.691Z,1.2608695652173914
2023-04-22T09:00:45.080Z,1.4949832775919731
2023-04-22T09:07:11.497Z,1.8862876254180603
2023-04-22T09:13:36.230Z,2.260869565217391
2023-04-22T09:20:02.493Z,1.3377926421404682
2023-04-22T09:26:26.477Z,2.0133779264214047
2023-04-22T09:33:04.754Z,1.9665551839464883
2023-04-22T09:39:29.427Z,2.0133779264214047
2023-04-22T09:50:14.192Z,1.7491638795986622
2023-04-22T09:56:43.923Z,1.3043478260869565
2023-04-22T10:05:27.499Z,1.2040133779264215
2023-04-22T10:11:49.701Z,0.6220735785953178
2023-04-22T10:24:13.162Z,1.140468227424749
2023-04-22T10:30:40.398Z,1.4247491638795986
2023-04-22T10:37:45.348Z,1.565217391304348
2023-04-22T10:44:21.408Z,0.939799331103679
2023-04-22T10:50:57.225Z,0.7090301003344481
2023-04-22T10:57:19.684Z,0.5618729096989966
2023-04-22T11:03:43.642Z,0.782608695652174
2023-04-22T11:11:30.714Z,0.8494983277591973
2023-04-22T11:20:41.896Z,1.2274247491638797
2023-04-22T11:27:04.039Z,0.7023411371237458
2023-04-22T11:34:20.423Z,0.6688963210702341
2023-04-22T11:40:45.714Z,0.919732441471572
2023-04-22T11:48:00.915Z,0.6153846153846154
2023-04-22T11:54:23.276Z,0.8695652173913043
2023-04-22T12:04:29.189Z,0.7424749163879598
2023-04-22T12:10:55.592Z,0.882943143812709
2023-04-22T12:29:35.179Z,0.5886287625418061
2023-04-22T12:40:31.680Z,0.46153846153846156
2023-04-22T12:46:54.624Z,1.060200668896321
2023-04-22T12:53:17.319Z,0.20066889632107024
2023-04-22T13:03:37.516Z,0.9297658862876255
2023-04-22T13:10:00.882Z,0.7424749163879598
2023-04-22T13:16:32.225Z,0.802675585284281
2023-04-22T13:22:54.279Z,0.802675585284281
2023-04-22T13:29:16.660Z,1.0969899665551839
2023-04-22T13:41:44.392Z,0.43478260869565216
2023-04-22T13:48:06.349Z,1.0167224080267558
2023-04-22T13:59:00.576Z,1.2173913043478262
2023-04-22T14:05:22.155Z,0.6086956521739131
2023-04-22T14:13:33.181Z,0.745819397993311
2023-04-22T14:21:41.549Z,1.2909698996655519
2023-04-22T14:28:03.089Z,0.7959866220735786
2023-04-22T14:34:24.252Z,0.6555183946488294
2023-04-22T14:40:46.065Z,0.3745819397993311
2023-04-22T14:52:53.291Z,0.5953177257525084
2023-04-22T15:03:01.661Z,0.8160535117056856
2023-04-22T15:09:23.677Z,0.802675585284281
2023-04-22T15:15:45.185Z,0.8461538461538461
2023-04-22T15:22:07.023Z,1.354515050167224
2023-04-22T15:28:28.742Z,0.43812709030100333
2023-04-22T15:39:24.898Z,0.6086956521739131
2023-04-22T15:53:08.865Z,0.8461538461538461
2023-04-22T15:59:30.753Z,0.7157190635451505
2023-04-22T16:05:52.152Z,0.09364548494983277
2023-04-22T16:12:14.281Z,1.4548494983277591
2023-04-22T16:19:35.593Z,0.6421404682274248
2023-04-22T16:25:57.759Z,0.41471571906354515
2023-04-22T16:32:20.012Z,0.4214046822742475
2023-04-22T16:38:42.452Z,1.0367892976588629
2023-04-22T16:45:04.645Z,0.9063545150501672
2023-04-22T16:53:04.690Z,0.7090301003344481
2023-04-22T17:01:54.687Z,0.41471571906354515
2023-04-22T17:08:17.365Z,0.5284280936454849
2023-04-22T17:18:28.294Z,0.5217391304347826
2023-04-22T17:25:20.137Z,0.7558528428093646
2023-04-22T17:31:42.654Z,0.7023411371237458
2023-04-22T17:38:04.725Z,0.5351170568561873
2023-04-22T17:44:26.083Z,0.7290969899665551
2023-04-22T17:50:47.808Z,1.0234113712374582
2023-04-22T17:57:10.163Z,1.745819397993311
2023-04-22T18:03:33.641Z,1.354515050167224
2023-04-22T18:09:57.518Z,1.0735785953177257
2023-04-22T18:16:18.477Z,0.6354515050167224
2023-04-22T18:22:39.336Z,0.6889632107023411
2023-04-22T18:28:59.911Z,1.6822742474916388
2023-04-22T18:35:20.683Z,0.7759197324414716
2023-04-22T18:41:41.504Z,1.8963210702341138
2023-04-22T18:48:02.499Z,1.3979933110367893
2023-04-22T19:00:38.101Z,1.2642140468227425
2023-04-22T19:12:11.915Z,1.7157190635451505
2023-04-22T19:18:32.985Z,0.6822742474916388
2023-04-22T19:24:54.244Z,1.4749163879598661
2023-04-22T19:31:17.295Z,1.0903010033444815
2023-04-22T19:37:41.334Z,0.725752508361204
2023-04-22T19:49:45.309Z,1.0468227424749164
2023-04-22T19:56:59.837Z,1.214046822742475
2023-04-22T20:06:37.747Z,1.2508361204013378
2023-04-22T20:12:59.757Z,1.3277591973244147
2023-04-22T20:19:20.693Z,1.705685618729097
2023-04-22T20:25:42.767Z,1.3177257525083612
2023-04-22T20:32:04.856Z,1.0301003344481605
2023-04-22T20:38:26.041Z,0.9163879598662207
2023-04-22T20:50:03.074Z,1.7759197324414715
2023-04-22T20:56:26.296Z,3.0301003344481607
2023-04-22T21:02:50.113Z,2.294314381270903
2023-04-22T21:09:13.410Z,2.2474916387959865
2023-04-22T21:17:18.818Z,1.8193979933110367
2023-04-22T21:24:35.507Z,1.8361204013377928
2023-04-22T21:30:58.757Z,2.79933110367893
2023-04-22T21:37:19.963Z,1.7759197324414715
2023-04-22T21:43:43.924Z,0.9096989966555183
2023-04-22T21:50:07.266Z,1.8227424749163879
2023-04-22T22:00:36.167Z,1.2642140468227425
2023-04-22T22:06:59.927Z,1.3645484949832776
2023-04-22T22:13:23.197Z,1.080267558528428
2023-04-22T22:19:46.949Z,1.0903010033444815
2023-04-22T22:26:09.892Z,2.0869565217391304
2023-04-22T22:32:29.922Z,0.6889632107023411
2023-04-22T22:38:56.976Z,1.5384615384615385
2023-04-22T22:45:17.606Z,1.2107023411371238
2023-04-22T22:51:37.928Z,0.6622073578595318
2023-04-22T23:04:49.938Z,1.1906354515050168
2023-04-22T23:11:10.974Z,1.3979933110367893
2023-04-22T23:17:31.451Z,1.1438127090301002
2023-04-22T23:23:53.228Z,1.9264214046822743
2023-04-22T23:30:14.410Z,1.5953177257525084
2023-04-22T23:36:34.549Z,1.2642140468227425
2023-04-22T23:46:24.094Z,1.0501672240802675
2023-04-22T23:52:44.710Z,1.2608695652173914
2023-04-22T23:59:06.289Z,0.6488294314381271
